Norway House Airport
CYNE : now visible

Airfield :











YOU CAN JOIN US ON...

 
LOGIN :

Register | Disclaimer

   EN    FR    IT 

 









Legend :    VFR   Marginal VFR   IFR   Intensive IFR   Very Intensive IFR
Visi :
Ceiling :
>= 8 km
>= 3000ft
5 to 8 km
1000 to 3000 ft
1500m to 5 km
500 to 1000 ft
800 to 1500m
200 to 500 ft
< 800m
< 200 ft
Symbols :   Thunderstorms  Fog  Heavy snow  Heavy precipitations  Wind > 20 kt






- Airport Elevation : 734 ft
- IATA code : YNE


CYNE - Norway House

CURRENT METAR :
  • 061934Z AUTO 24005KT 210V280 1 1/2SM -SN FEW008 BKN015 BKN021 OVC029 M02/M03 A2926 RMK SLP925

EXPIRED METARs :
  • 061920Z AUTO 23005KT 210V270 3/4SM -SN SCT010 OVC013 M03/M04 A2927 RMK SLP927
  • 061912Z AUTO 23008KT 1 1/4SM -SN BKN009 OVC013 M03/M04 A2927 RMK SLP928
  • 061905Z AUTO 23009KT 2SM -SN OVC011 M03/M04 A2927 RMK SLP928
  • 061849Z AUTO 22009KT 2 1/2SM -SN BKN008 OVC013 M03/M04 A2927 RMK SLP928
  • 061833Z AUTO 22010KT 2 1/4SM -SN OVC008 M04/M05 A2927 RMK SLP928
  • 061830Z AUTO 22010KT 2 1/2SM -SN OVC008 M04/M05 A2927 RMK SLP928
  • 061811Z AUTO 20009KT 6SM -SN OVC008 M04/M06 A2927 RMK SLP930
  • 061747Z AUTO 20009KT 5SM -SN BKN010 BKN017 BKN031 OVC048 M05/M06 A2928 RMK SLP932
  • 061732Z AUTO 19009G16KT 6SM -SN SCT012 BKN023 BKN037 OVC050 M05/M06 A2928 RMK SLP934
  • 061722Z AUTO 20010G16KT 3SM -SN FEW013 BKN023 BKN039 OVC055 M05/M06 A2929 RMK SLP936
  • 061715Z AUTO 20012KT 2 1/2SM -SN FEW008 SCT013 BKN023 OVC027 M05/M06 A2929 RMK SLP936
  • 061702Z AUTO 20012G17KT 1 1/2SM -SN FEW008 BKN013 OVC019 M05/M07 A2930 RMK SLP939
  • 061647Z AUTO 20011G18KT 2 1/4SM -SN OVC013 M05/M07 A2930 RMK SLP940

TAF AMD TAF CYNE
Valid from the 06 at 19:00 until the 07 at 07:00 UTC


061928Z 0619/0707 22008KT 1SM -SN OVC008
TEMPO 0619/0622 P6SM -SN SCT012 OVC025
BECMG 0620/0622 30012G22KT
FM062200 30012G22KT 5SM -SN BKN010 OVC020
TEMPO 0622/0707 P6SM NSW BKN025 RMK FCST BASED ON AUTO OBS. NXT FCST BY 070100Z
CZWG FIR / North America



MET'MAP, your aeronautical weather chart ! - Copyright ORBIFLY December 2007 - Disclaimer

ORBIFLY MET'MAP TEAM :

Programming & Development : Alexandra Zaïnal
Original concept : Baudouin d'Aumeries
Technical & hardware support : Manuel Goepfert
Assistance : Marc-Olivier Méhu




SOURCES & CREDITS :

   NOAA       Earth
Advisory